createdAt,value
2017-06-12T00:00:09.203Z,21.00
2017-06-12T00:02:38.737Z,21.10
2017-06-12T00:05:07.889Z,21.20
2017-06-12T00:07:37.288Z,21.00
2017-06-12T00:10:06.903Z,21.00
2017-06-12T00:12:36.296Z,21.00
2017-06-12T00:15:05.611Z,20.90
2017-06-12T00:17:34.999Z,21.00
2017-06-12T00:20:04.426Z,21.10
2017-06-12T00:22:33.539Z,21.20
2017-06-12T00:25:02.808Z,21.20
2017-06-12T00:27:32.269Z,21.40
2017-06-12T00:30:01.464Z,21.40
2017-06-12T00:32:30.841Z,21.30
2017-06-12T00:35:00.095Z,21.20
2017-06-12T00:37:29.273Z,21.10
2017-06-12T00:39:58.499Z,21.00
2017-06-12T00:42:28.982Z,21.00
2017-06-12T00:44:58.243Z,21.00
2017-06-12T00:47:27.812Z,21.10
2017-06-12T00:49:57.225Z,21.10
2017-06-12T00:52:27.505Z,21.20
2017-06-12T00:54:56.698Z,21.20
2017-06-12T00:57:26.027Z,21.30
2017-06-12T00:59:55.264Z,21.40
2017-06-12T01:02:24.980Z,21.30
2017-06-12T01:04:57.455Z,21.30
2017-06-12T01:07:26.930Z,21.30
2017-06-12T01:09:55.707Z,21.10
2017-06-12T01:12:24.777Z,21.00
2017-06-12T01:14:54.168Z,21.10
2017-06-12T01:17:23.308Z,21.20
2017-06-12T01:19:52.585Z,21.10
2017-06-12T01:22:32.836Z,21.10
2017-06-12T01:25:02.043Z,21.10
2017-06-12T01:27:31.294Z,21.10
2017-06-12T01:30:00.834Z,20.90
2017-06-12T01:32:29.887Z,21.00
2017-06-12T01:34:59.135Z,21.00
2017-06-12T01:37:28.487Z,20.90
2017-06-12T01:39:57.965Z,21.00
2017-06-12T01:42:27.337Z,20.90
2017-06-12T01:44:57.625Z,20.80
2017-06-12T01:47:27.203Z,20.80
2017-06-12T01:49:56.189Z,20.60
2017-06-12T01:52:25.525Z,20.40
2017-06-12T01:54:55.002Z,20.40
2017-06-12T01:57:25.183Z,20.70
2017-06-12T01:59:54.839Z,20.70
2017-06-12T02:02:25.879Z,20.80
2017-06-12T02:04:55.610Z,20.70
2017-06-12T02:07:25.017Z,20.90
2017-06-12T02:09:54.819Z,20.70
2017-06-12T02:12:24.268Z,20.60
2017-06-12T02:14:53.498Z,20.50
2017-06-12T02:17:22.667Z,20.40
2017-06-12T02:19:51.966Z,20.30
2017-06-12T02:22:21.271Z,20.30
2017-06-12T02:24:50.836Z,20.30
2017-06-12T02:27:20.451Z,20.30
2017-06-12T02:29:49.989Z,20.30
2017-06-12T02:32:19.269Z,20.20
2017-06-12T02:34:48.895Z,20.10
2017-06-12T02:37:20.302Z,19.90
2017-06-12T02:39:49.891Z,19.90
2017-06-12T02:42:19.581Z,19.80
2017-06-12T02:44:48.973Z,19.70
2017-06-12T02:47:19.418Z,19.60
2017-06-12T02:49:49.077Z,19.70
2017-06-12T02:52:18.602Z,19.50
2017-06-12T02:54:48.106Z,19.30
2017-06-12T02:57:17.488Z,19.20
2017-06-12T02:59:49.299Z,19.00
2017-06-12T03:02:20.840Z,19.00
2017-06-12T03:04:50.436Z,18.80
2017-06-12T03:07:19.871Z,18.80
2017-06-12T03:09:49.433Z,18.70
2017-06-12T03:12:18.797Z,18.50
2017-06-12T03:14:51.164Z,18.40
2017-06-12T03:17:20.536Z,18.30
2017-06-12T03:19:49.910Z,18.20
2017-06-12T03:22:19.574Z,18.10
2017-06-12T03:24:49.660Z,17.90
2017-06-12T03:27:18.996Z,17.90
2017-06-12T03:29:48.605Z,17.80
2017-06-12T03:32:18.275Z,17.70
2017-06-12T03:34:47.915Z,17.60
2017-06-12T03:37:18.097Z,17.50
2017-06-12T03:39:47.771Z,17.40
2017-06-12T03:42:17.000Z,17.30
2017-06-12T03:44:46.496Z,17.30
2017-06-12T03:47:16.076Z,17.20
2017-06-12T03:49:46.641Z,17.00
2017-06-12T03:52:16.174Z,16.90
2017-06-12T03:54:45.244Z,16.80
2017-06-12T03:57:15.558Z,16.80
2017-06-12T03:59:45.155Z,16.70
2017-06-12T04:02:14.586Z,16.60
2017-06-12T04:04:44.079Z,16.50
2017-06-12T04:07:13.780Z,16.40
2017-06-12T04:09:43.209Z,16.40
2017-06-12T04:12:12.900Z,16.30
2017-06-12T04:14:42.347Z,16.20
2017-06-12T04:17:11.506Z,16.20
2017-06-12T04:19:40.861Z,16.10
2017-06-12T04:22:12.012Z,16.00
2017-06-12T04:24:42.127Z,15.80
2017-06-12T04:27:11.584Z,15.70
2017-06-12T04:29:40.884Z,15.70
2017-06-12T04:32:10.317Z,15.70
2017-06-12T04:34:39.758Z,15.60
2017-06-12T04:37:09.138Z,15.60
2017-06-12T04:39:38.401Z,15.50
2017-06-12T04:42:08.018Z,15.50
2017-06-12T04:44:37.399Z,15.40
2017-06-12T04:47:06.892Z,15.40
2017-06-12T04:49:35.989Z,15.20
2017-06-12T04:52:06.505Z,15.20
2017-06-12T04:54:36.084Z,15.20
2017-06-12T04:57:05.440Z,15.10
2017-06-12T04:59:34.715Z,15.00
2017-06-12T05:02:06.311Z,15.00
2017-06-12T05:04:35.842Z,14.90
2017-06-12T05:07:05.417Z,14.90
2017-06-12T05:09:34.715Z,14.90
2017-06-12T05:12:04.877Z,14.80
2017-06-12T05:14:34.308Z,14.70
2017-06-12T05:17:04.068Z,14.60
2017-06-12T05:19:33.462Z,14.60
2017-06-12T05:22:03.237Z,14.50
2017-06-12T05:24:32.587Z,14.50
2017-06-12T05:27:02.164Z,14.50
2017-06-12T05:29:31.683Z,14.40
2017-06-12T05:32:01.180Z,14.30
2017-06-12T05:34:30.540Z,14.20
2017-06-12T05:37:00.483Z,14.20
2017-06-12T05:39:30.058Z,14.10
2017-06-12T05:41:59.567Z,14.10
2017-06-12T05:44:30.825Z,14.00
2017-06-12T05:47:00.409Z,14.00
2017-06-12T05:49:29.767Z,14.00
2017-06-12T05:51:59.259Z,13.90
2017-06-12T05:54:29.869Z,13.90
2017-06-12T05:56:59.436Z,13.80
2017-06-12T05:59:28.785Z,13.80
2017-06-12T06:01:58.411Z,13.80
2017-06-12T06:04:27.914Z,13.80
2017-06-12T06:06:57.488Z,13.70
2017-06-12T06:09:27.023Z,13.80
2017-06-12T06:11:56.211Z,13.80
2017-06-12T06:14:25.814Z,13.70
2017-06-12T06:16:55.518Z,13.60
2017-06-12T06:19:24.765Z,13.60
2017-06-12T06:21:54.232Z,13.50
2017-06-12T06:24:23.930Z,13.50
2017-06-12T06:26:53.494Z,13.40
2017-06-12T06:29:22.834Z,13.40
2017-06-12T06:31:52.446Z,13.40
2017-06-12T06:34:21.797Z,13.30
2017-06-12T06:36:51.211Z,13.20
2017-06-12T06:39:20.776Z,13.20
2017-06-12T06:41:50.010Z,13.10
2017-06-12T06:44:19.404Z,13.10
2017-06-12T06:46:48.943Z,13.10
2017-06-12T06:49:19.095Z,13.00
2017-06-12T06:51:48.688Z,13.00
2017-06-12T06:54:17.923Z,13.00
2017-06-12T06:56:48.118Z,12.90
2017-06-12T06:59:17.734Z,13.00
2017-06-12T07:01:47.304Z,13.00
2017-06-12T07:04:16.800Z,12.90
2017-06-12T07:06:46.354Z,13.20
2017-06-12T07:09:15.879Z,12.80
2017-06-12T07:11:45.463Z,12.70
2017-06-12T07:14:14.829Z,12.60
2017-06-12T07:16:44.578Z,12.70
2017-06-12T07:19:13.914Z,12.40
2017-06-12T07:21:43.381Z,12.50
2017-06-12T07:24:13.022Z,12.50
2017-06-12T07:26:42.692Z,12.40
2017-06-12T07:29:12.074Z,12.30
2017-06-12T07:31:41.458Z,12.20
2017-06-12T07:34:11.000Z,12.20
2017-06-12T07:36:40.593Z,12.20
2017-06-12T07:39:10.374Z,12.10
2017-06-12T07:41:39.907Z,12.00
2017-06-12T07:44:09.305Z,12.00
2017-06-12T07:46:38.607Z,12.00
2017-06-12T07:49:08.192Z,11.90
2017-06-12T07:51:37.254Z,11.90
2017-06-12T07:54:06.557Z,11.80
2017-06-12T07:56:35.814Z,11.70
2017-06-12T07:59:07.430Z,11.80
2017-06-12T08:01:37.008Z,11.80
2017-06-12T08:04:06.455Z,11.70
2017-06-12T08:06:35.779Z,11.80
2017-06-12T08:09:05.418Z,11.70
2017-06-12T08:11:34.626Z,11.90
2017-06-12T08:14:04.277Z,11.50
2017-06-12T08:16:33.621Z,11.50
2017-06-12T08:19:02.959Z,11.50
2017-06-12T08:21:32.254Z,11.50
2017-06-12T08:24:01.752Z,11.50
2017-06-12T08:26:31.118Z,11.60
2017-06-12T08:29:00.489Z,11.70
2017-06-12T08:31:29.798Z,11.60
2017-06-12T08:33:59.061Z,11.40
2017-06-12T08:36:28.460Z,11.00
2017-06-12T08:38:57.783Z,11.20
2017-06-12T08:41:27.440Z,11.10
2017-06-12T08:43:56.800Z,11.10
2017-06-12T08:46:26.106Z,11.50
2017-06-12T08:49:02.999Z,11.20
2017-06-12T08:51:32.657Z,11.40
2017-06-12T08:54:02.229Z,11.20
2017-06-12T08:56:31.831Z,11.20
2017-06-12T08:59:01.539Z,11.20
2017-06-12T09:01:32.753Z,11.10
2017-06-12T09:04:02.184Z,11.00
2017-06-12T09:06:31.888Z,11.30
2017-06-12T09:09:02.035Z,11.30
2017-06-12T09:11:31.724Z,11.40
2017-06-12T09:14:01.845Z,11.30
2017-06-12T09:16:31.574Z,11.20
2017-06-12T09:19:00.940Z,11.30
2017-06-12T09:21:30.513Z,11.40
2017-06-12T09:24:00.055Z,11.50
2017-06-12T09:26:29.315Z,11.50
2017-06-12T09:28:58.876Z,11.30
2017-06-12T09:31:28.234Z,11.30
2017-06-12T09:33:57.569Z,11.60
2017-06-12T09:36:27.213Z,11.70
2017-06-12T09:38:56.436Z,11.90
2017-06-12T09:41:25.947Z,12.00
2017-06-12T09:43:55.253Z,12.10
2017-06-12T09:46:24.800Z,12.30
2017-06-12T09:48:54.365Z,12.40
2017-06-12T09:51:23.614Z,12.50
2017-06-12T09:53:53.784Z,12.90
2017-06-12T09:56:22.988Z,12.50
2017-06-12T09:58:52.395Z,12.50
2017-06-12T10:01:21.852Z,12.50
2017-06-12T10:03:52.715Z,12.30
2017-06-12T10:06:22.139Z,12.70
2017-06-12T10:08:51.610Z,12.80
2017-06-12T10:11:21.193Z,12.90
2017-06-12T10:13:50.739Z,12.90
2017-06-12T10:16:20.029Z,12.90
2017-06-12T10:18:57.301Z,12.90
2017-06-12T10:21:26.799Z,13.30
2017-06-12T10:23:56.155Z,13.10
2017-06-12T10:26:25.618Z,13.20
2017-06-12T10:28:55.264Z,13.20
2017-06-12T10:31:24.774Z,13.30
2017-06-12T10:33:54.451Z,13.40
2017-06-12T10:36:23.771Z,13.30
2017-06-12T10:38:53.174Z,13.40
2017-06-12T10:41:22.575Z,13.10
2017-06-12T10:43:51.983Z,13.20
2017-06-12T10:46:21.325Z,13.30
2017-06-12T10:48:50.860Z,13.50
2017-06-12T10:51:20.907Z,13.50
2017-06-12T10:53:50.374Z,13.50
2017-06-12T10:56:19.870Z,13.50
2017-06-12T10:58:49.171Z,13.50
2017-06-12T11:01:18.688Z,13.50
2017-06-12T11:03:48.255Z,13.50
2017-06-12T11:06:18.145Z,13.40
2017-06-12T11:08:47.433Z,13.30
2017-06-12T11:11:16.963Z,13.30
2017-06-12T11:13:46.536Z,13.40
2017-06-12T11:16:15.907Z,13.50
2017-06-12T11:18:45.477Z,13.50
2017-06-12T11:21:14.982Z,13.30
2017-06-12T11:23:44.756Z,13.30
2017-06-12T11:26:14.539Z,13.30
2017-06-12T11:28:44.974Z,13.30
2017-06-12T11:31:14.932Z,13.40
2017-06-12T11:33:44.435Z,13.40
2017-06-12T11:36:13.920Z,13.40
2017-06-12T11:38:43.346Z,13.40
2017-06-12T11:41:12.740Z,13.40
2017-06-12T11:43:42.277Z,13.40
2017-06-12T11:46:11.682Z,13.40
2017-06-12T11:48:41.167Z,13.40
2017-06-12T11:51:10.818Z,13.50
2017-06-12T11:53:40.492Z,13.40
2017-06-12T11:56:09.875Z,13.40
2017-06-12T11:58:39.300Z,13.40
2017-06-12T12:01:09.123Z,13.30
2017-06-12T12:03:38.418Z,13.50
2017-06-12T12:06:07.820Z,13.60
2017-06-12T12:08:38.181Z,13.60
2017-06-12T12:11:07.424Z,13.60
2017-06-12T12:13:37.072Z,13.70
2017-06-12T12:16:06.328Z,13.50
2017-06-12T12:18:35.850Z,13.40
2017-06-12T12:21:05.376Z,13.20
2017-06-12T12:23:34.740Z,13.40
2017-06-12T12:26:03.897Z,13.50
2017-06-12T12:28:33.109Z,13.60
2017-06-12T12:31:02.577Z,13.70
2017-06-12T12:33:31.969Z,13.70
2017-06-12T12:36:01.594Z,13.70
2017-06-12T12:38:31.282Z,13.80
2017-06-12T12:41:00.864Z,13.70
2017-06-12T12:43:30.468Z,13.70
2017-06-12T12:45:59.937Z,13.60
2017-06-12T12:48:29.250Z,13.60
2017-06-12T12:50:58.856Z,13.60
2017-06-12T12:53:28.328Z,13.70
2017-06-12T12:55:57.780Z,13.60
2017-06-12T12:58:27.098Z,13.60
2017-06-12T13:00:56.780Z,13.50
2017-06-12T13:03:26.354Z,13.60
2017-06-12T13:05:56.132Z,13.70
2017-06-12T13:08:25.326Z,13.80
2017-06-12T13:10:55.810Z,13.80
2017-06-12T13:13:25.379Z,13.80
2017-06-12T13:15:54.982Z,13.60
2017-06-12T13:18:24.367Z,13.60
2017-06-12T13:20:53.780Z,13.70
2017-06-12T13:23:23.039Z,13.70
2017-06-12T13:25:53.221Z,13.70
2017-06-12T13:28:22.729Z,13.70
2017-06-12T13:30:52.063Z,13.70
2017-06-12T13:33:21.330Z,13.60
2017-06-12T13:35:50.751Z,13.50
2017-06-12T13:38:20.226Z,13.50
2017-06-12T13:40:49.900Z,13.60
2017-06-12T13:43:19.404Z,13.70
2017-06-12T13:45:48.998Z,13.90
2017-06-12T13:48:18.464Z,13.80
2017-06-12T13:50:47.978Z,13.80
2017-06-12T13:53:17.511Z,13.90
2017-06-12T13:55:46.939Z,14.00
2017-06-12T13:58:16.256Z,14.10
2017-06-12T14:00:45.610Z,14.10
2017-06-12T14:03:15.963Z,14.30
2017-06-12T14:05:45.439Z,14.20
2017-06-12T14:08:15.599Z,14.50
2017-06-12T14:10:45.216Z,14.40
2017-06-12T14:13:16.059Z,14.50
2017-06-12T14:15:45.588Z,14.60
2017-06-12T14:18:15.232Z,14.70
2017-06-12T14:20:44.567Z,14.70
2017-06-12T14:23:14.180Z,14.70
2017-06-12T14:25:43.731Z,14.80
2017-06-12T14:28:13.450Z,14.90
2017-06-12T14:30:42.867Z,14.80
2017-06-12T14:33:12.309Z,14.70
2017-06-12T14:35:41.719Z,14.50
2017-06-12T14:38:11.139Z,14.60
2017-06-12T14:40:40.702Z,14.70
2017-06-12T14:43:10.051Z,14.80
2017-06-12T14:45:39.515Z,14.70
2017-06-12T14:48:08.747Z,14.80
2017-06-12T14:50:38.356Z,14.80
2017-06-12T14:53:07.832Z,14.80
2017-06-12T14:55:37.323Z,14.60
2017-06-12T14:58:06.857Z,14.40
2017-06-12T15:00:36.437Z,14.30
2017-06-12T15:03:06.021Z,14.20
2017-06-12T15:05:35.600Z,14.10
2017-06-12T15:08:05.200Z,14.20
2017-06-12T15:10:34.703Z,14.30
2017-06-12T15:13:04.095Z,14.60
2017-06-12T15:15:34.524Z,14.50
2017-06-12T15:18:04.047Z,14.40
2017-06-12T15:20:33.480Z,14.50
2017-06-12T15:23:02.854Z,14.60
2017-06-12T15:25:32.266Z,14.50
2017-06-12T15:28:01.530Z,14.40
2017-06-12T15:30:31.017Z,14.40
2017-06-12T15:33:00.694Z,14.70
2017-06-12T15:35:30.158Z,14.70
2017-06-12T15:37:59.643Z,14.80
2017-06-12T15:40:29.145Z,14.90
2017-06-12T15:42:58.684Z,15.00
2017-06-12T15:45:28.175Z,14.90
2017-06-12T15:47:57.916Z,14.90
2017-06-12T15:50:27.253Z,15.00
2017-06-12T15:52:56.863Z,15.10
2017-06-12T15:55:26.529Z,15.20
2017-06-12T15:57:56.087Z,15.30
2017-06-12T16:00:25.894Z,15.40
2017-06-12T16:02:55.093Z,15.30
2017-06-12T16:05:24.512Z,15.10
2017-06-12T16:07:54.057Z,15.20
2017-06-12T16:10:23.475Z,15.10
2017-06-12T16:12:53.194Z,15.10
2017-06-12T16:15:22.920Z,15.20
2017-06-12T16:17:53.064Z,14.90
2017-06-12T16:20:22.928Z,15.00
2017-06-12T16:22:52.522Z,15.10
2017-06-12T16:25:22.123Z,15.10
2017-06-12T16:27:51.926Z,15.00
2017-06-12T16:30:21.231Z,15.10
2017-06-12T16:32:50.654Z,15.20
2017-06-12T16:35:20.238Z,15.30
2017-06-12T16:37:49.659Z,15.30
2017-06-12T16:40:19.303Z,15.40
2017-06-12T16:42:48.666Z,15.30
2017-06-12T16:45:18.141Z,15.50
2017-06-12T16:47:47.691Z,15.20
2017-06-12T16:50:17.433Z,15.30
2017-06-12T16:52:46.653Z,15.30
2017-06-12T16:55:16.206Z,15.40
2017-06-12T16:57:45.736Z,15.50
2017-06-12T17:00:15.182Z,15.50
2017-06-12T17:02:44.707Z,15.50
2017-06-12T17:05:13.975Z,15.40
2017-06-12T17:07:43.386Z,15.30
2017-06-12T17:10:12.997Z,15.20
2017-06-12T17:12:42.710Z,15.10
2017-06-12T17:15:11.871Z,15.00
2017-06-12T17:17:41.315Z,14.90
2017-06-12T17:20:11.861Z,15.00
2017-06-12T17:22:41.306Z,15.10
2017-06-12T17:25:10.717Z,15.10
2017-06-12T17:27:40.080Z,15.10
2017-06-12T17:30:09.134Z,15.10
2017-06-12T17:32:38.278Z,15.10
2017-06-12T17:35:07.688Z,15.10
2017-06-12T17:37:37.229Z,15.20
2017-06-12T17:40:06.841Z,15.20
2017-06-12T17:42:36.149Z,15.30
2017-06-12T17:45:05.252Z,15.20
2017-06-12T17:47:34.847Z,15.20
2017-06-12T17:50:04.119Z,15.40
2017-06-12T17:52:33.465Z,15.20
2017-06-12T17:55:03.136Z,15.40
2017-06-12T17:57:32.733Z,15.50
2017-06-12T18:00:02.097Z,15.60
2017-06-12T18:02:31.638Z,15.50
2017-06-12T18:05:02.079Z,15.50
2017-06-12T18:07:31.743Z,15.50
2017-06-12T18:10:01.203Z,15.60
2017-06-12T18:12:30.636Z,15.70
2017-06-12T18:15:00.332Z,15.80
2017-06-12T18:17:32.828Z,15.90
2017-06-12T18:20:02.047Z,15.80
2017-06-12T18:22:33.183Z,15.80
2017-06-12T18:25:02.689Z,15.70
2017-06-12T18:27:32.296Z,15.70
2017-06-12T18:30:01.849Z,15.50
2017-06-12T18:32:31.499Z,15.30
2017-06-12T18:35:01.213Z,15.40
2017-06-12T18:37:30.491Z,15.40
2017-06-12T18:39:59.657Z,15.30
2017-06-12T18:42:29.076Z,15.30
2017-06-12T18:44:58.695Z,15.40
2017-06-12T18:47:28.180Z,15.30
2017-06-12T18:49:57.518Z,15.20
2017-06-12T18:52:27.122Z,15.30
2017-06-12T18:54:56.487Z,15.40
2017-06-12T18:57:25.897Z,15.60
2017-06-12T18:59:55.258Z,15.50
2017-06-12T19:02:32.339Z,15.30
2017-06-12T19:05:02.134Z,15.50
2017-06-12T19:07:31.131Z,15.60
2017-06-12T19:10:00.714Z,15.60
2017-06-12T19:12:30.001Z,15.80
2017-06-12T19:14:59.579Z,15.60
2017-06-12T19:17:30.078Z,15.80
2017-06-12T19:19:59.592Z,15.80
2017-06-12T19:22:29.294Z,15.90
2017-06-12T19:25:00.827Z,15.80
2017-06-12T19:27:30.310Z,15.80
2017-06-12T19:30:00.046Z,16.00
2017-06-12T19:32:29.306Z,15.80
2017-06-12T19:34:58.557Z,15.80
2017-06-12T19:37:28.200Z,15.80
2017-06-12T19:39:58.563Z,16.30
2017-06-12T19:42:28.157Z,16.30
2017-06-12T19:44:57.473Z,16.60
2017-06-12T19:47:27.088Z,17.00
2017-06-12T19:49:57.007Z,17.10
2017-06-12T19:52:26.665Z,17.20
2017-06-12T19:54:56.320Z,17.30
2017-06-12T19:57:25.523Z,17.50
2017-06-12T19:59:55.135Z,17.30
2017-06-12T20:02:24.780Z,17.70
2017-06-12T20:04:54.159Z,17.80
2017-06-12T20:07:31.191Z,18.30
2017-06-12T20:10:00.689Z,18.70
2017-06-12T20:12:30.268Z,18.80
2017-06-12T20:14:59.801Z,18.50
2017-06-12T20:17:29.107Z,18.80
2017-06-12T20:19:58.862Z,18.50
2017-06-12T20:22:28.138Z,18.60
2017-06-12T20:24:57.541Z,18.70
2017-06-12T20:27:28.490Z,18.70
2017-06-12T20:29:58.258Z,18.50
2017-06-12T20:32:28.663Z,18.40
2017-06-12T20:34:57.984Z,18.40
2017-06-12T20:37:27.564Z,18.20
2017-06-12T20:39:57.119Z,18.20
2017-06-12T20:42:26.603Z,18.10
2017-06-12T20:44:56.694Z,18.10
2017-06-12T20:47:26.109Z,18.10
2017-06-12T20:49:55.636Z,18.00
2017-06-12T20:52:25.221Z,17.90
2017-06-12T20:54:54.710Z,18.00
2017-06-12T20:57:24.043Z,17.80
2017-06-12T20:59:53.542Z,17.70
2017-06-12T21:02:23.140Z,17.70
2017-06-12T21:04:52.511Z,17.60
2017-06-12T21:07:21.821Z,17.60
2017-06-12T21:09:51.303Z,17.60
2017-06-12T21:12:20.793Z,17.60
2017-06-12T21:14:50.347Z,17.50
2017-06-12T21:17:19.701Z,17.30
2017-06-12T21:19:49.329Z,17.20
2017-06-12T21:22:18.648Z,16.80
2017-06-12T21:24:48.416Z,16.60
2017-06-12T21:27:18.677Z,16.30
2017-06-12T21:29:49.073Z,16.30
2017-06-12T21:32:18.832Z,16.10
2017-06-12T21:34:48.349Z,16.20
2017-06-12T21:37:17.938Z,16.30
2017-06-12T21:39:47.289Z,16.30
2017-06-12T21:42:16.605Z,16.20
2017-06-12T21:44:46.146Z,16.20
2017-06-12T21:47:15.536Z,16.30
2017-06-12T21:49:44.772Z,16.20
2017-06-12T21:52:14.088Z,16.00
2017-06-12T21:54:44.119Z,16.10
2017-06-12T21:57:13.660Z,16.10
2017-06-12T21:59:43.216Z,16.10
2017-06-12T22:02:13.383Z,16.30
2017-06-12T22:04:42.797Z,16.30
2017-06-12T22:07:12.378Z,16.40
2017-06-12T22:09:41.717Z,16.50
2017-06-12T22:12:10.978Z,16.40
2017-06-12T22:14:40.496Z,16.40
2017-06-12T22:17:10.275Z,16.40
2017-06-12T22:19:39.682Z,16.40
2017-06-12T22:22:09.287Z,16.40
2017-06-12T22:24:38.721Z,16.20
2017-06-12T22:27:08.174Z,16.20
2017-06-12T22:29:37.791Z,16.10
2017-06-12T22:32:08.608Z,16.30
2017-06-12T22:34:38.040Z,16.30
2017-06-12T22:37:08.417Z,16.00
2017-06-12T22:39:37.683Z,16.00
2017-06-12T22:42:07.469Z,16.20
2017-06-12T22:44:37.756Z,16.70
2017-06-12T22:47:07.302Z,16.70
2017-06-12T22:49:37.486Z,16.70
2017-06-12T22:52:06.974Z,16.70
2017-06-12T22:54:36.347Z,16.90
2017-06-12T22:57:06.059Z,17.20
2017-06-12T22:59:35.777Z,17.40
2017-06-12T23:02:05.515Z,17.70
2017-06-12T23:04:35.205Z,17.80
2017-06-12T23:07:04.618Z,17.70
2017-06-12T23:09:33.839Z,18.10
2017-06-12T23:12:03.277Z,18.10
2017-06-12T23:14:32.986Z,18.00
2017-06-12T23:17:03.572Z,17.60
2017-06-12T23:19:32.776Z,17.60
2017-06-12T23:22:02.459Z,17.40
2017-06-12T23:24:32.002Z,17.40
2017-06-12T23:27:01.734Z,17.30
2017-06-12T23:29:31.139Z,17.20
2017-06-12T23:32:00.727Z,17.10
2017-06-12T23:34:31.147Z,16.90
2017-06-12T23:37:00.553Z,16.80
2017-06-12T23:39:29.819Z,16.60
2017-06-12T23:41:59.331Z,16.50
2017-06-12T23:44:28.797Z,16.50
2017-06-12T23:46:58.340Z,16.50
2017-06-12T23:49:27.853Z,16.40
2017-06-12T23:51:56.622Z,16.50
2017-06-12T23:54:26.024Z,16.30
2017-06-12T23:56:55.276Z,16.00
2017-06-12T23:59:25.016Z,15.90
